sensor_id;sensor_type;location;lat;lon;timestamp;pressure;altitude;pressure_sealevel;temperature;humidity
61537;BME280;48695;53.480;-6.300;2023-09-19T00:01:29;99496.28;;;14.98;62.03
61537;BME280;48695;53.480;-6.300;2023-09-19T00:03:57;99499.06;;;14.95;61.14
61537;BME280;48695;53.480;-6.300;2023-09-19T00:06:23;99501.91;;;14.92;61.98
61537;BME280;48695;53.480;-6.300;2023-09-19T00:08:54;99494.66;;;14.81;63.46
61537;BME280;48695;53.480;-6.300;2023-09-19T00:11:20;99496.63;;;14.77;63.91
61537;BME280;48695;53.480;-6.300;2023-09-19T00:13:47;99506.75;;;14.84;64.36
61537;BME280;48695;53.480;-6.300;2023-09-19T00:16:15;99510.59;;;14.78;64.58
61537;BME280;48695;53.480;-6.300;2023-09-19T00:18:40;99520.28;;;14.77;64.40
61537;BME280;48695;53.480;-6.300;2023-09-19T00:21:05;99511.66;;;14.75;64.48
61537;BME280;48695;53.480;-6.300;2023-09-19T00:23:32;99515.19;;;14.74;64.64
61537;BME280;48695;53.480;-6.300;2023-09-19T00:26:00;99510.88;;;14.73;64.91
61537;BME280;48695;53.480;-6.300;2023-09-19T00:28:29;99512.75;;;14.71;64.78
61537;BME280;48695;53.480;-6.300;2023-09-19T00:30:55;99514.59;;;14.69;65.66
61537;BME280;48695;53.480;-6.300;2023-09-19T00:33:21;99505.97;;;14.67;64.36
61537;BME280;48695;53.480;-6.300;2023-09-19T00:35:51;99483.06;;;14.55;65.69
61537;BME280;48695;53.480;-6.300;2023-09-19T00:38:18;99509.63;;;14.65;64.77
61537;BME280;48695;53.480;-6.300;2023-09-19T00:40:47;99512.34;;;14.63;65.90
61537;BME280;48695;53.480;-6.300;2023-09-19T00:43:12;99499.22;;;14.63;65.78
61537;BME280;48695;53.480;-6.300;2023-09-19T00:45:39;99490.84;;;14.57;65.43
61537;BME280;48695;53.480;-6.300;2023-09-19T00:48:08;99487.03;;;14.46;66.86
61537;BME280;48695;53.480;-6.300;2023-09-19T00:50:34;99498.72;;;14.57;66.63
61537;BME280;48695;53.480;-6.300;2023-09-19T00:53:00;99498.47;;;14.45;66.47
61537;BME280;48695;53.480;-6.300;2023-09-19T00:55:26;99496.69;;;14.46;67.91
61537;BME280;48695;53.480;-6.300;2023-09-19T00:57:55;99504.56;;;14.46;67.62
61537;BME280;48695;53.480;-6.300;2023-09-19T01:00:21;99517.03;;;14.42;67.54
61537;BME280;48695;53.480;-6.300;2023-09-19T01:02:48;99509.41;;;14.38;68.37
61537;BME280;48695;53.480;-6.300;2023-09-19T01:05:14;99507.16;;;14.32;68.56
61537;BME280;48695;53.480;-6.300;2023-09-19T01:07:40;99507.16;;;14.32;69.29
61537;BME280;48695;53.480;-6.300;2023-09-19T01:10:13;99499.38;;;14.30;69.87
61537;BME280;48695;53.480;-6.300;2023-09-19T01:13:31;99509.03;;;14.30;68.69
61537;BME280;48695;53.480;-6.300;2023-09-19T01:18:51;99489.28;;;14.22;69.38
61537;BME280;48695;53.480;-6.300;2023-09-19T01:21:35;99492.50;;;14.27;69.72
61537;BME280;48695;53.480;-6.300;2023-09-19T01:30:24;99457.41;;;14.28;72.49
61537;BME280;48695;53.480;-6.300;2023-09-19T01:32:51;99448.63;;;14.30;74.81
61537;BME280;48695;53.480;-6.300;2023-09-19T01:35:17;99434.34;;;14.34;70.19
61537;BME280;48695;53.480;-6.300;2023-09-19T01:37:43;99416.19;;;14.31;74.83
61537;BME280;48695;53.480;-6.300;2023-09-19T01:40:10;99413.91;;;14.39;74.34
61537;BME280;48695;53.480;-6.300;2023-09-19T01:43:05;99403.25;;;14.42;74.37
61537;BME280;48695;53.480;-6.300;2023-09-19T01:48:46;99383.75;;;14.46;74.85
61537;BME280;48695;53.480;-6.300;2023-09-19T01:51:30;99382.66;;;14.50;74.01
61537;BME280;48695;53.480;-6.300;2023-09-19T01:54:09;99365.97;;;14.51;73.68
61537;BME280;48695;53.480;-6.300;2023-09-19T01:56:53;99363.25;;;14.52;72.97
61537;BME280;48695;53.480;-6.300;2023-09-19T01:59:30;99358.94;;;14.51;73.90
61537;BME280;48695;53.480;-6.300;2023-09-19T02:01:59;99344.19;;;14.49;75.06
61537;BME280;48695;53.480;-6.300;2023-09-19T02:04:26;99343.28;;;14.50;74.79
61537;BME280;48695;53.480;-6.300;2023-09-19T02:06:52;99349.38;;;14.50;74.84
61537;BME280;48695;53.480;-6.300;2023-09-19T02:09:18;99331.22;;;14.46;75.47
61537;BME280;48695;53.480;-6.300;2023-09-19T02:11:43;99333.78;;;14.47;75.96
61537;BME280;48695;53.480;-6.300;2023-09-19T02:14:09;99325.19;;;14.44;76.13
61537;BME280;48695;53.480;-6.300;2023-09-19T02:16:35;99333.69;;;14.49;75.96
61537;BME280;48695;53.480;-6.300;2023-09-19T02:19:00;99331.81;;;14.51;75.53
61537;BME280;48695;53.480;-6.300;2023-09-19T02:21:26;99319.53;;;14.51;76.14
61537;BME280;48695;53.480;-6.300;2023-09-19T02:23:55;99301.97;;;14.52;75.87
61537;BME280;48695;53.480;-6.300;2023-09-19T02:26:20;99278.69;;;14.46;75.13
61537;BME280;48695;53.480;-6.300;2023-09-19T02:28:46;99271.28;;;14.52;75.01
61537;BME280;48695;53.480;-6.300;2023-09-19T02:31:11;99266.88;;;14.53;75.56
61537;BME280;48695;53.480;-6.300;2023-09-19T02:33:37;99208.16;;;14.25;76.06
61537;BME280;48695;53.480;-6.300;2023-09-19T02:36:02;99246.81;;;14.52;76.29
61537;BME280;48695;53.480;-6.300;2023-09-19T02:38:29;99228.72;;;14.47;75.50
61537;BME280;48695;53.480;-6.300;2023-09-19T02:40:55;99230.94;;;14.53;75.27
61537;BME280;48695;53.480;-6.300;2023-09-19T02:43:23;99224.75;;;14.54;75.32
61537;BME280;48695;53.480;-6.300;2023-09-19T02:45:49;99223.06;;;14.53;74.12
61537;BME280;48695;53.480;-6.300;2023-09-19T02:48:15;99204.78;;;14.52;75.16
61537;BME280;48695;53.480;-6.300;2023-09-19T02:50:42;99205.63;;;14.52;75.48
61537;BME280;48695;53.480;-6.300;2023-09-19T02:53:07;99183.78;;;14.52;74.38
61537;BME280;48695;53.480;-6.300;2023-09-19T02:55:32;99168.84;;;14.52;75.52
61537;BME280;48695;53.480;-6.300;2023-09-19T02:57:59;99141.16;;;14.47;75.47
61537;BME280;48695;53.480;-6.300;2023-09-19T03:00:25;99149.63;;;14.52;74.55
61537;BME280;48695;53.480;-6.300;2023-09-19T03:02:55;99141.56;;;14.55;74.76
61537;BME280;48695;53.480;-6.300;2023-09-19T03:05:22;99133.88;;;14.52;75.24
61537;BME280;48695;53.480;-6.300;2023-09-19T03:07:49;99110.22;;;14.52;74.94
61537;BME280;48695;53.480;-6.300;2023-09-19T03:10:19;99104.13;;;14.51;75.74
61537;BME280;48695;53.480;-6.300;2023-09-19T03:12:46;99074.00;;;14.43;75.58
61537;BME280;48695;53.480;-6.300;2023-09-19T03:15:11;99089.03;;;14.55;75.39
61537;BME280;48695;53.480;-6.300;2023-09-19T03:17:37;99074.94;;;14.56;74.33
61537;BME280;48695;53.480;-6.300;2023-09-19T03:20:03;99050.47;;;14.41;73.75
61537;BME280;48695;53.480;-6.300;2023-09-19T03:22:29;99062.53;;;14.58;73.33
61537;BME280;48695;53.480;-6.300;2023-09-19T03:24:55;99034.69;;;14.56;75.11
61537;BME280;48695;53.480;-6.300;2023-09-19T03:27:20;99020.66;;;14.42;74.12
61537;BME280;48695;53.480;-6.300;2023-09-19T03:29:46;99022.31;;;14.58;74.97
61537;BME280;48695;53.480;-6.300;2023-09-19T03:32:12;99007.38;;;14.58;75.33
61537;BME280;48695;53.480;-6.300;2023-09-19T03:34:38;98997.72;;;14.59;74.89
61537;BME280;48695;53.480;-6.300;2023-09-19T03:37:09;98989.00;;;14.58;75.32
61537;BME280;48695;53.480;-6.300;2023-09-19T03:39:34;98972.28;;;14.59;75.33
61537;BME280;48695;53.480;-6.300;2023-09-19T03:42:00;98956.50;;;14.59;76.55
61537;BME280;48695;53.480;-6.300;2023-09-19T03:44:26;98943.19;;;14.62;75.40
61537;BME280;48695;53.480;-6.300;2023-09-19T03:46:51;98924.06;;;14.60;76.45
61537;BME280;48695;53.480;-6.300;2023-09-19T03:49:17;98908.50;;;14.57;76.49
61537;BME280;48695;53.480;-6.300;2023-09-19T03:51:42;98907.06;;;14.66;75.73
61537;BME280;48695;53.480;-6.300;2023-09-19T03:54:07;98905.88;;;14.70;74.42
61537;BME280;48695;53.480;-6.300;2023-09-19T03:56:33;98897.16;;;14.69;75.31
61537;BME280;48695;53.480;-6.300;2023-09-19T03:58:58;98898.63;;;14.73;74.79
61537;BME280;48695;53.480;-6.300;2023-09-19T04:01:24;98875.22;;;14.70;74.83
61537;BME280;48695;53.480;-6.300;2023-09-19T04:03:49;98867.09;;;14.73;75.33
61537;BME280;48695;53.480;-6.300;2023-09-19T04:06:17;98870.38;;;14.77;74.92
61537;BME280;48695;53.480;-6.300;2023-09-19T04:08:43;98852.28;;;14.72;75.90
61537;BME280;48695;53.480;-6.300;2023-09-19T04:11:10;98820.25;;;14.67;74.85
61537;BME280;48695;53.480;-6.300;2023-09-19T04:13:35;98858.47;;;14.84;74.60
61537;BME280;48695;53.480;-6.300;2023-09-19T04:16:01;98838.09;;;14.88;74.61
61537;BME280;48695;53.480;-6.300;2023-09-19T04:18:27;98825.66;;;14.90;75.48
61537;BME280;48695;53.480;-6.300;2023-09-19T04:20:56;98803.91;;;14.88;75.96
61537;BME280;48695;53.480;-6.300;2023-09-19T04:23:21;98795.59;;;14.94;75.15
61537;BME280;48695;53.480;-6.300;2023-09-19T04:25:47;98784.03;;;14.96;75.45
61537;BME280;48695;53.480;-6.300;2023-09-19T04:28:13;98781.19;;;14.99;75.23
61537;BME280;48695;53.480;-6.300;2023-09-19T04:30:38;98766.25;;;15.00;75.59
61537;BME280;48695;53.480;-6.300;2023-09-19T04:33:07;98755.84;;;14.98;75.51
61537;BME280;48695;53.480;-6.300;2023-09-19T04:35:32;98723.59;;;14.96;75.61
61537;BME280;48695;53.480;-6.300;2023-09-19T04:37:58;98734.53;;;15.14;75.87
61537;BME280;48695;53.480;-6.300;2023-09-19T04:40:23;98727.41;;;15.16;76.42
61537;BME280;48695;53.480;-6.300;2023-09-19T04:42:58;98717.25;;;15.23;75.55
61537;BME280;48695;53.480;-6.300;2023-09-19T04:45:24;98688.69;;;15.18;75.79
61537;BME280;48695;53.480;-6.300;2023-09-19T04:47:49;98716.19;;;15.25;75.96
61537;BME280;48695;53.480;-6.300;2023-09-19T04:50:15;98711.44;;;15.30;75.99
61537;BME280;48695;53.480;-6.300;2023-09-19T04:52:42;98688.22;;;15.24;76.52
61537;BME280;48695;53.480;-6.300;2023-09-19T04:55:15;98679.19;;;15.40;76.18
61537;BME280;48695;53.480;-6.300;2023-09-19T04:57:46;98698.34;;;15.42;77.01
61537;BME280;48695;53.480;-6.300;2023-09-19T05:00:17;98691.03;;;15.45;76.45
61537;BME280;48695;53.480;-6.300;2023-09-19T05:02:52;98678.00;;;15.44;77.03
61537;BME280;48695;53.480;-6.300;2023-09-19T05:05:21;98692.50;;;15.49;77.08
61537;BME280;48695;53.480;-6.300;2023-09-19T05:07:48;98673.59;;;15.44;76.82
61537;BME280;48695;53.480;-6.300;2023-09-19T05:10:14;98676.03;;;15.58;76.53
61537;BME280;48695;53.480;-6.300;2023-09-19T05:12:39;98668.97;;;15.59;77.21
61537;BME280;48695;53.480;-6.300;2023-09-19T05:15:06;98655.59;;;15.62;77.11
61537;BME280;48695;53.480;-6.300;2023-09-19T05:17:32;98645.69;;;15.66;77.04
61537;BME280;48695;53.480;-6.300;2023-09-19T05:19:58;98662.81;;;15.71;77.34
61537;BME280;48695;53.480;-6.300;2023-09-19T05:22:26;98649.66;;;15.71;77.48
61537;BME280;48695;53.480;-6.300;2023-09-19T05:24:51;98642.97;;;15.67;77.75
61537;BME280;48695;53.480;-6.300;2023-09-19T05:27:18;98636.25;;;15.74;77.34
61537;BME280;48695;53.480;-6.300;2023-09-19T05:29:44;98621.91;;;15.67;77.35
61537;BME280;48695;53.480;-6.300;2023-09-19T05:32:10;98637.97;;;15.87;77.52
61537;BME280;48695;53.480;-6.300;2023-09-19T05:34:36;98631.00;;;15.86;77.62
61537;BME280;48695;53.480;-6.300;2023-09-19T05:37:02;98642.75;;;15.93;78.50
61537;BME280;48695;53.480;-6.300;2023-09-19T05:39:27;98621.19;;;15.88;78.44
61537;BME280;48695;53.480;-6.300;2023-09-19T05:41:53;98577.16;;;15.78;78.18
61537;BME280;48695;53.480;-6.300;2023-09-19T05:44:18;98622.16;;;15.98;78.01
61537;BME280;48695;53.480;-6.300;2023-09-19T05:46:44;98589.38;;;16.02;78.06
61537;BME280;48695;53.480;-6.300;2023-09-19T05:49:11;98594.16;;;16.08;78.24
61537;BME280;48695;53.480;-6.300;2023-09-19T05:51:36;98583.38;;;16.11;78.18
61537;BME280;48695;53.480;-6.300;2023-09-19T05:54:02;98594.63;;;16.13;78.57
61537;BME280;48695;53.480;-6.300;2023-09-19T05:56:27;98619.75;;;16.17;78.02
61537;BME280;48695;53.480;-6.300;2023-09-19T05:58:52;98640.69;;;16.19;78.28
61537;BME280;48695;53.480;-6.300;2023-09-19T06:01:18;98606.09;;;16.23;78.60
61537;BME280;48695;53.480;-6.300;2023-09-19T06:03:44;98611.84;;;16.28;78.27
61537;BME280;48695;53.480;-6.300;2023-09-19T06:06:09;98609.91;;;16.30;78.27
61537;BME280;48695;53.480;-6.300;2023-09-19T06:08:35;98601.31;;;16.28;78.57
61537;BME280;48695;53.480;-6.300;2023-09-19T06:11:00;98608.72;;;16.34;78.50
61537;BME280;48695;53.480;-6.300;2023-09-19T06:13:29;98584.78;;;16.26;78.96
61537;BME280;48695;53.480;-6.300;2023-09-19T06:15:55;98617.09;;;16.40;78.74
61537;BME280;48695;53.480;-6.300;2023-09-19T06:18:21;98626.16;;;16.47;78.58
61537;BME280;48695;53.480;-6.300;2023-09-19T06:20:51;98613.72;;;16.49;78.51
61537;BME280;48695;53.480;-6.300;2023-09-19T06:23:17;98609.88;;;16.53;78.42
61537;BME280;48695;53.480;-6.300;2023-09-19T06:25:43;98609.16;;;16.51;78.27
61537;BME280;48695;53.480;-6.300;2023-09-19T06:28:09;98599.09;;;16.56;78.78
61537;BME280;48695;53.480;-6.300;2023-09-19T06:30:37;98580.44;;;16.48;79.01
61537;BME280;48695;53.480;-6.300;2023-09-19T06:33:06;98596.69;;;16.64;78.46
61537;BME280;48695;53.480;-6.300;2023-09-19T06:35:33;98610.56;;;16.66;78.80
61537;BME280;48695;53.480;-6.300;2023-09-19T06:37:59;98606.72;;;16.70;78.53
61537;BME280;48695;53.480;-6.300;2023-09-19T06:40:28;98588.31;;;16.59;78.49
61537;BME280;48695;53.480;-6.300;2023-09-19T06:42:53;98602.91;;;16.74;78.71
61537;BME280;48695;53.480;-6.300;2023-09-19T06:45:19;98608.78;;;16.78;78.95
61537;BME280;48695;53.480;-6.300;2023-09-19T06:47:47;98605.72;;;16.82;78.63
61537;BME280;48695;53.480;-6.300;2023-09-19T06:50:19;98623.81;;;16.87;78.59
61537;BME280;48695;53.480;-6.300;2023-09-19T06:52:48;98618.31;;;16.90;78.96
61537;BME280;48695;53.480;-6.300;2023-09-19T06:55:16;98606.66;;;16.93;78.90
61537;BME280;48695;53.480;-6.300;2023-09-19T06:57:42;98583.34;;;16.88;79.01
61537;BME280;48695;53.480;-6.300;2023-09-19T07:00:09;98593.00;;;16.99;78.51
61537;BME280;48695;53.480;-6.300;2023-09-19T07:02:44;98595.88;;;16.96;78.93
61537;BME280;48695;53.480;-6.300;2023-09-19T07:05:10;98599.47;;;16.95;78.73
61537;BME280;48695;53.480;-6.300;2023-09-19T07:07:35;98604.22;;;17.01;79.09
61537;BME280;48695;53.480;-6.300;2023-09-19T07:10:02;98613.75;;;17.13;79.02
61537;BME280;48695;53.480;-6.300;2023-09-19T07:12:28;98629.09;;;17.19;78.72
61537;BME280;48695;53.480;-6.300;2023-09-19T07:14:53;98630.50;;;17.23;78.89
61537;BME280;48695;53.480;-6.300;2023-09-19T07:17:18;98627.47;;;17.28;79.14
61537;BME280;48695;53.480;-6.300;2023-09-19T07:19:45;98629.16;;;17.29;79.14
61537;BME280;48695;53.480;-6.300;2023-09-19T07:22:10;98651.56;;;17.34;79.08
61537;BME280;48695;53.480;-6.300;2023-09-19T07:24:36;98661.84;;;17.37;78.78
61537;BME280;48695;53.480;-6.300;2023-09-19T07:27:02;98620.91;;;17.22;79.36
61537;BME280;48695;53.480;-6.300;2023-09-19T07:29:28;98644.47;;;17.35;79.14
61537;BME280;48695;53.480;-6.300;2023-09-19T07:31:53;98647.44;;;17.42;79.16
61537;BME280;48695;53.480;-6.300;2023-09-19T07:34:19;98638.63;;;17.31;79.13
61537;BME280;48695;53.480;-6.300;2023-09-19T07:36:47;98654.81;;;17.48;78.99
61537;BME280;48695;53.480;-6.300;2023-09-19T07:39:13;98645.00;;;17.50;79.00
61537;BME280;48695;53.480;-6.300;2023-09-19T07:41:38;98661.38;;;17.53;79.18
61537;BME280;48695;53.480;-6.300;2023-09-19T07:44:04;98664.63;;;17.57;79.36
61537;BME280;48695;53.480;-6.300;2023-09-19T07:46:29;98653.81;;;17.60;79.11
61537;BME280;48695;53.480;-6.300;2023-09-19T07:48:56;98661.47;;;17.63;79.16
61537;BME280;48695;53.480;-6.300;2023-09-19T07:51:22;98687.59;;;17.66;79.14
61537;BME280;48695;53.480;-6.300;2023-09-19T07:53:47;98691.91;;;17.67;79.22
61537;BME280;48695;53.480;-6.300;2023-09-19T07:56:13;98673.56;;;17.66;79.51
61537;BME280;48695;53.480;-6.300;2023-09-19T07:58:40;98672.56;;;17.78;79.86
61537;BME280;48695;53.480;-6.300;2023-09-19T08:01:09;98675.94;;;17.80;79.52
61537;BME280;48695;53.480;-6.300;2023-09-19T08:03:36;98700.97;;;17.85;79.43
61537;BME280;48695;53.480;-6.300;2023-09-19T08:06:06;98710.31;;;17.89;79.99
61537;BME280;48695;53.480;-6.300;2023-09-19T08:08:32;98673.59;;;17.86;79.93
61537;BME280;48695;53.480;-6.300;2023-09-19T08:10:59;98693.84;;;18.07;79.49
61537;BME280;48695;53.480;-6.300;2023-09-19T08:13:25;98709.16;;;18.13;79.81
61537;BME280;48695;53.480;-6.300;2023-09-19T08:15:51;98699.78;;;18.20;79.73
61537;BME280;48695;53.480;-6.300;2023-09-19T08:18:18;98727.47;;;18.26;79.59
61537;BME280;48695;53.480;-6.300;2023-09-19T08:20:52;98703.78;;;18.24;79.77
61537;BME280;48695;53.480;-6.300;2023-09-19T08:23:18;98700.13;;;18.36;79.40
61537;BME280;48695;53.480;-6.300;2023-09-19T08:25:45;98711.13;;;18.41;79.10
61537;BME280;48695;53.480;-6.300;2023-09-19T08:28:11;98692.00;;;18.28;78.76
61537;BME280;48695;53.480;-6.300;2023-09-19T08:30:39;98697.91;;;18.41;79.17
61537;BME280;48695;53.480;-6.300;2023-09-19T08:33:06;98705.56;;;18.45;78.84
61537;BME280;48695;53.480;-6.300;2023-09-19T08:35:33;98712.53;;;18.46;79.05
61537;BME280;48695;53.480;-6.300;2023-09-19T08:37:58;98692.19;;;18.36;78.71
61537;BME280;48695;53.480;-6.300;2023-09-19T08:40:30;98720.19;;;18.49;78.95
61537;BME280;48695;53.480;-6.300;2023-09-19T08:42:59;98719.19;;;18.50;78.85
61537;BME280;48695;53.480;-6.300;2023-09-19T08:45:25;98718.25;;;18.51;78.84
61537;BME280;48695;53.480;-6.300;2023-09-19T08:48:03;98712.56;;;18.55;78.74
61537;BME280;48695;53.480;-6.300;2023-09-19T08:50:43;98728.28;;;18.57;79.19
61537;BME280;48695;53.480;-6.300;2023-09-19T08:53:19;98714.78;;;18.50;79.15
61537;BME280;48695;53.480;-6.300;2023-09-19T08:55:50;98728.44;;;18.65;79.20
61537;BME280;48695;53.480;-6.300;2023-09-19T08:58:19;98737.81;;;18.69;79.03
61537;BME280;48695;53.480;-6.300;2023-09-19T09:00:48;98718.28;;;18.60;79.14
61537;BME280;48695;53.480;-6.300;2023-09-19T09:03:15;98742.69;;;18.74;79.13
61537;BME280;48695;53.480;-6.300;2023-09-19T09:05:45;98736.03;;;18.79;79.23
61537;BME280;48695;53.480;-6.300;2023-09-19T09:08:13;98743.72;;;18.82;78.65
61537;BME280;48695;53.480;-6.300;2023-09-19T09:10:39;98744.41;;;18.84;78.82
61537;BME280;48695;53.480;-6.300;2023-09-19T09:13:06;98742.03;;;18.81;78.74
61537;BME280;48695;53.480;-6.300;2023-09-19T09:15:35;98753.75;;;18.88;78.93
61537;BME280;48695;53.480;-6.300;2023-09-19T09:18:02;98758.75;;;18.82;78.63
61537;BME280;48695;53.480;-6.300;2023-09-19T09:20:28;98761.69;;;18.88;78.97
61537;BME280;48695;53.480;-6.300;2023-09-19T09:22:55;98761.41;;;18.91;79.20
61537;BME280;48695;53.480;-6.300;2023-09-19T09:25:21;98767.28;;;19.05;78.46
61537;BME280;48695;53.480;-6.300;2023-09-19T09:28:07;98767.84;;;19.08;78.18
61537;BME280;48695;53.480;-6.300;2023-09-19T09:30:36;98749.75;;;19.04;78.86
61537;BME280;48695;53.480;-6.300;2023-09-19T09:33:12;98757.13;;;19.10;78.91
61537;BME280;48695;53.480;-6.300;2023-09-19T09:35:57;98751.56;;;19.13;78.81
61537;BME280;48695;53.480;-6.300;2023-09-19T09:38:27;98751.56;;;19.13;78.75
61537;BME280;48695;53.480;-6.300;2023-09-19T09:40:59;98742.09;;;19.10;78.92
61537;BME280;48695;53.480;-6.300;2023-09-19T09:43:35;98741.69;;;19.15;79.26
61537;BME280;48695;53.480;-6.300;2023-09-19T09:46:18;98760.22;;;19.25;78.98
61537;BME280;48695;53.480;-6.300;2023-09-19T09:48:47;98748.81;;;19.24;78.94
61537;BME280;48695;53.480;-6.300;2023-09-19T09:51:32;98749.94;;;19.31;78.95
61537;BME280;48695;53.480;-6.300;2023-09-19T09:54:15;98771.81;;;19.43;78.86
61537;BME280;48695;53.480;-6.300;2023-09-19T09:56:58;98776.41;;;19.51;78.98
61537;BME280;48695;53.480;-6.300;2023-09-19T10:02:17;98779.34;;;19.57;79.30
61537;BME280;48695;53.480;-6.300;2023-09-19T10:04:53;98776.75;;;19.67;79.22
61537;BME280;48695;53.480;-6.300;2023-09-19T10:07:32;98772.81;;;19.71;78.61
61537;BME280;48695;53.480;-6.300;2023-09-19T10:10:04;98757.06;;;19.79;78.89
61537;BME280;48695;53.480;-6.300;2023-09-19T10:12:55;98774.34;;;19.83;78.70
61537;BME280;48695;53.480;-6.300;2023-09-19T10:15:26;98754.25;;;19.90;79.07
61537;BME280;48695;53.480;-6.300;2023-09-19T10:17:52;98786.34;;;19.87;78.72
61537;BME280;48695;53.480;-6.300;2023-09-19T10:20:24;98793.16;;;20.00;79.30
61537;BME280;48695;53.480;-6.300;2023-09-19T10:23:12;98790.66;;;20.08;78.80
61537;BME280;48695;53.480;-6.300;2023-09-19T10:25:42;98800.69;;;20.14;78.52
61537;BME280;48695;53.480;-6.300;2023-09-19T10:28:12;98792.16;;;20.10;78.00
61537;BME280;48695;53.480;-6.300;2023-09-19T10:30:41;98804.00;;;20.16;78.45
61537;BME280;48695;53.480;-6.300;2023-09-19T10:33:14;98791.47;;;20.18;77.85
61537;BME280;48695;53.480;-6.300;2023-09-19T10:35:44;98788.00;;;20.17;77.90
61537;BME280;48695;53.480;-6.300;2023-09-19T10:38:11;98804.16;;;20.14;77.88
61537;BME280;48695;53.480;-6.300;2023-09-19T10:40:38;98800.38;;;20.17;78.24
61537;BME280;48695;53.480;-6.300;2023-09-19T10:43:20;98777.94;;;20.02;78.04
61537;BME280;48695;53.480;-6.300;2023-09-19T10:45:47;98807.06;;;20.11;78.07
61537;BME280;48695;53.480;-6.300;2023-09-19T10:48:16;98795.66;;;20.11;78.35
61537;BME280;48695;53.480;-6.300;2023-09-19T10:50:47;98787.84;;;20.00;78.12
61537;BME280;48695;53.480;-6.300;2023-09-19T10:53:14;98789.94;;;20.06;77.90
61537;BME280;48695;53.480;-6.300;2023-09-19T10:55:49;98816.84;;;20.11;78.28
61537;BME280;48695;53.480;-6.300;2023-09-19T10:58:27;98808.47;;;20.06;77.99
61537;BME280;48695;53.480;-6.300;2023-09-19T11:01:00;98803.19;;;19.96;78.25
61537;BME280;48695;53.480;-6.300;2023-09-19T11:03:32;98806.69;;;19.96;78.06
61537;BME280;48695;53.480;-6.300;2023-09-19T11:06:05;98807.09;;;20.02;77.76
61537;BME280;48695;53.480;-6.300;2023-09-19T11:09:00;98803.75;;;20.00;77.93
61537;BME280;48695;53.480;-6.300;2023-09-19T11:14:29;98806.00;;;19.85;77.63
61537;BME280;48695;53.480;-6.300;2023-09-19T11:30:34;98807.06;;;19.53;78.74
61537;BME280;48695;53.480;-6.300;2023-09-19T11:36:10;98799.97;;;19.54;78.70
61537;BME280;48695;53.480;-6.300;2023-09-19T11:43:46;98787.97;;;19.50;79.95
61537;BME280;48695;53.480;-6.300;2023-09-19T11:46:12;98793.69;;;19.55;80.35
61537;BME280;48695;53.480;-6.300;2023-09-19T11:48:42;98795.09;;;19.59;80.86
61537;BME280;48695;53.480;-6.300;2023-09-19T11:51:14;98785.38;;;19.69;80.62
61537;BME280;48695;53.480;-6.300;2023-09-19T11:53:52;98802.34;;;19.76;80.57
61537;BME280;48695;53.480;-6.300;2023-09-19T11:56:23;98796.22;;;19.85;80.74
61537;BME280;48695;53.480;-6.300;2023-09-19T11:58:54;98786.47;;;19.86;80.55
61537;BME280;48695;53.480;-6.300;2023-09-19T12:01:33;98778.66;;;19.94;80.31
61537;BME280;48695;53.480;-6.300;2023-09-19T12:04:01;98791.50;;;19.99;80.56
61537;BME280;48695;53.480;-6.300;2023-09-19T12:06:30;98773.63;;;20.01;80.82
61537;BME280;48695;53.480;-6.300;2023-09-19T12:08:56;98783.66;;;20.07;80.69
61537;BME280;48695;53.480;-6.300;2023-09-19T12:11:28;98769.44;;;20.08;80.03
61537;BME280;48695;53.480;-6.300;2023-09-19T12:13:54;98775.84;;;20.15;80.21
61537;BME280;48695;53.480;-6.300;2023-09-19T12:16:24;98771.94;;;20.19;80.29
61537;BME280;48695;53.480;-6.300;2023-09-19T12:18:50;98786.56;;;20.23;80.51
61537;BME280;48695;53.480;-6.300;2023-09-19T12:21:25;98784.75;;;20.33;80.21
61537;BME280;48695;53.480;-6.300;2023-09-19T12:24:06;98793.09;;;20.38;79.88
61537;BME280;48695;53.480;-6.300;2023-09-19T12:26:42;98793.78;;;20.40;79.59
61537;BME280;48695;53.480;-6.300;2023-09-19T12:29:15;98814.84;;;20.42;79.58
61537;BME280;48695;53.480;-6.300;2023-09-19T12:31:57;98800.47;;;20.44;79.28
61537;BME280;48695;53.480;-6.300;2023-09-19T12:34:30;98779.25;;;20.44;79.11
61537;BME280;48695;53.480;-6.300;2023-09-19T12:37:10;98794.19;;;20.45;78.94
61537;BME280;48695;53.480;-6.300;2023-09-19T12:39:45;98783.84;;;20.42;79.47
61537;BME280;48695;53.480;-6.300;2023-09-19T12:42:15;98807.88;;;20.41;79.56
61537;BME280;48695;53.480;-6.300;2023-09-19T12:44:45;98810.38;;;20.42;79.61
61537;BME280;48695;53.480;-6.300;2023-09-19T12:47:18;98821.84;;;20.43;79.48
61537;BME280;48695;53.480;-6.300;2023-09-19T12:50:09;98821.69;;;20.44;79.21
61537;BME280;48695;53.480;-6.300;2023-09-19T12:52:45;98805.63;;;20.36;79.41
61537;BME280;48695;53.480;-6.300;2023-09-19T12:55:28;98818.31;;;20.42;79.35
61537;BME280;48695;53.480;-6.300;2023-09-19T13:00:33;98806.06;;;20.32;78.95
61537;BME280;48695;53.480;-6.300;2023-09-19T13:03:25;98820.13;;;20.42;78.92
61537;BME280;48695;53.480;-6.300;2023-09-19T13:05:58;98822.38;;;20.37;79.33
61537;BME280;48695;53.480;-6.300;2023-09-19T13:08:28;98824.91;;;20.38;79.61
61537;BME280;48695;53.480;-6.300;2023-09-19T13:11:14;98834.69;;;20.38;79.05
61537;BME280;48695;53.480;-6.300;2023-09-19T13:13:47;98831.47;;;20.34;79.04
61537;BME280;48695;53.480;-6.300;2023-09-19T13:16:22;98775.59;;;19.99;79.67
61537;BME280;48695;53.480;-6.300;2023-09-19T13:18:50;98834.13;;;20.34;79.01
61537;BME280;48695;53.480;-6.300;2023-09-19T13:21:16;98831.47;;;20.34;78.15
61537;BME280;48695;53.480;-6.300;2023-09-19T13:23:53;98831.75;;;20.31;78.90
61537;BME280;48695;53.480;-6.300;2023-09-19T13:26:27;98831.34;;;20.26;79.68
61537;BME280;48695;53.480;-6.300;2023-09-19T13:28:54;98829.38;;;20.28;79.31
61537;BME280;48695;53.480;-6.300;2023-09-19T13:31:19;98818.25;;;20.15;79.54
61537;BME280;48695;53.480;-6.300;2023-09-19T13:33:48;98821.03;;;20.23;79.91
61537;BME280;48695;53.480;-6.300;2023-09-19T13:36:15;98826.34;;;20.23;79.28
61537;BME280;48695;53.480;-6.300;2023-09-19T13:38:41;98829.94;;;20.22;79.66
61537;BME280;48695;53.480;-6.300;2023-09-19T13:41:10;98822.97;;;20.21;79.74
61537;BME280;48695;53.480;-6.300;2023-09-19T13:43:37;98823.81;;;20.21;79.52